createdAt,value
2017-09-11T00:00:28.012Z,0.00
2017-09-11T00:01:28.045Z,0.00
2017-09-11T00:03:21.036Z,0.00
2017-09-11T00:04:21.102Z,0.00
2017-09-11T00:06:14.107Z,0.00
2017-09-11T00:07:14.148Z,0.00
2017-09-11T00:09:07.141Z,0.00
2017-09-11T00:10:07.201Z,0.00
2017-09-11T00:12:00.210Z,0.00
2017-09-11T00:13:00.251Z,0.00
2017-09-11T00:14:53.242Z,0.00
2017-09-11T00:15:53.302Z,0.00
2017-09-11T00:17:46.313Z,0.00
2017-09-11T00:18:46.352Z,0.00
2017-09-11T00:20:39.870Z,0.00
2017-09-11T00:21:39.912Z,0.00
2017-09-11T00:23:32.910Z,0.00
2017-09-11T00:24:32.968Z,0.00
2017-09-11T00:26:25.977Z,0.00
2017-09-11T00:27:26.020Z,0.00
2017-09-11T00:29:19.010Z,0.00
2017-09-11T00:30:19.071Z,0.00
2017-09-11T00:32:12.089Z,0.00
2017-09-11T00:33:12.132Z,0.00
2017-09-11T00:35:05.122Z,0.00
2017-09-11T00:36:05.185Z,0.00
2017-09-11T00:37:58.199Z,0.00
2017-09-11T00:38:58.243Z,0.00
2017-09-11T00:40:51.258Z,0.00
2017-09-11T00:41:51.301Z,0.00
2017-09-11T00:43:44.292Z,0.00
2017-09-11T00:44:44.359Z,0.00
2017-09-11T00:46:37.369Z,0.00
2017-09-11T00:47:37.413Z,0.00
2017-09-11T00:49:30.408Z,0.00
2017-09-11T00:50:30.470Z,0.00
2017-09-11T00:52:23.486Z,0.00
2017-09-11T00:53:23.528Z,0.00
2017-09-11T00:55:16.526Z,0.00
2017-09-11T00:56:16.589Z,0.00
2017-09-11T00:58:09.600Z,0.00
2017-09-11T00:59:09.641Z,0.00
2017-09-11T01:01:02.652Z,0.00
2017-09-11T01:02:02.694Z,0.00
2017-09-11T01:03:55.685Z,0.00
2017-09-11T01:04:55.752Z,0.00
2017-09-11T01:06:48.758Z,0.00
2017-09-11T01:07:48.801Z,0.00
2017-09-11T01:09:41.791Z,0.00
2017-09-11T01:10:41.850Z,0.00
2017-09-11T01:12:34.863Z,0.00
2017-09-11T01:13:34.907Z,0.00
2017-09-11T01:15:27.898Z,0.00
2017-09-11T01:16:27.960Z,0.00
2017-09-11T01:18:20.967Z,0.00
2017-09-11T01:19:21.010Z,0.00
2017-09-11T01:21:14.017Z,0.00
2017-09-11T01:22:14.061Z,0.00
2017-09-11T01:24:07.052Z,0.00
2017-09-11T01:25:07.112Z,0.00
2017-09-11T01:27:00.123Z,0.00
2017-09-11T01:28:00.166Z,0.00
2017-09-11T01:29:53.156Z,0.00
2017-09-11T01:30:53.220Z,0.00
2017-09-11T01:32:46.225Z,0.00
2017-09-11T01:33:46.270Z,0.00
2017-09-11T01:35:39.258Z,0.00
2017-09-11T01:36:39.318Z,0.00
2017-09-11T01:38:32.342Z,0.00
2017-09-11T01:39:32.384Z,0.00
2017-09-11T01:41:25.392Z,0.00
2017-09-11T01:42:25.438Z,0.00
2017-09-11T01:44:18.423Z,0.00
2017-09-11T01:45:18.490Z,0.00
2017-09-11T01:47:11.495Z,0.00
2017-09-11T01:48:11.537Z,0.00
2017-09-11T01:50:04.527Z,0.00
2017-09-11T01:51:04.588Z,0.00
2017-09-11T01:52:57.597Z,0.00
2017-09-11T01:53:57.639Z,0.00
2017-09-11T01:55:50.630Z,0.00
2017-09-11T01:56:50.690Z,0.00
2017-09-11T01:58:43.699Z,0.00
2017-09-11T01:59:43.744Z,0.00
2017-09-11T02:01:36.755Z,0.00
2017-09-11T02:02:36.800Z,0.00
2017-09-11T02:04:29.788Z,0.00
2017-09-11T02:05:29.846Z,0.00
2017-09-11T02:07:22.856Z,0.00
2017-09-11T02:08:22.898Z,0.00
2017-09-11T02:10:15.889Z,0.00
2017-09-11T02:11:15.949Z,0.00
2017-09-11T02:13:08.959Z,0.00
2017-09-11T02:14:08.999Z,0.00
2017-09-11T02:16:01.990Z,0.00
2017-09-11T02:17:02.048Z,0.00
2017-09-11T02:18:55.057Z,0.00
2017-09-11T02:19:55.100Z,0.00
2017-09-11T02:21:48.112Z,0.00
2017-09-11T02:22:48.157Z,0.00
2017-09-11T02:24:41.144Z,0.00
2017-09-11T02:25:41.204Z,0.00
2017-09-11T02:27:34.216Z,0.00
2017-09-11T02:28:34.256Z,0.00
2017-09-11T02:30:27.247Z,0.00
2017-09-11T02:31:27.309Z,0.00
2017-09-11T02:33:20.319Z,0.00
2017-09-11T02:34:20.363Z,0.00
2017-09-11T02:36:13.350Z,0.00
2017-09-11T02:37:13.408Z,0.00
2017-09-11T02:39:06.421Z,0.00
2017-09-11T02:40:06.463Z,0.00
2017-09-11T02:41:59.472Z,0.00
2017-09-11T02:42:59.512Z,0.00
2017-09-11T02:44:52.505Z,0.00
2017-09-11T02:45:52.570Z,0.00
2017-09-11T02:47:45.580Z,0.00
2017-09-11T02:48:45.620Z,0.00
2017-09-11T02:50:38.612Z,0.00
2017-09-11T02:51:38.676Z,0.00
2017-09-11T02:53:31.682Z,0.00
2017-09-11T02:54:31.725Z,0.00
2017-09-11T02:56:24.718Z,0.00
2017-09-11T02:57:24.781Z,0.00
2017-09-11T02:59:17.798Z,0.00
2017-09-11T03:00:17.843Z,0.00
2017-09-11T03:02:10.861Z,0.00
2017-09-11T03:03:10.904Z,0.00
2017-09-11T03:05:03.894Z,0.00
2017-09-11T03:06:03.955Z,0.00
2017-09-11T03:07:56.970Z,0.00
2017-09-11T03:08:57.011Z,0.00
2017-09-11T03:10:50.008Z,0.00
2017-09-11T03:11:50.072Z,0.00
2017-09-11T03:13:43.086Z,0.00
2017-09-11T03:14:43.130Z,0.00
2017-09-11T03:16:36.121Z,0.00
2017-09-11T03:17:36.183Z,0.00
2017-09-11T03:19:29.198Z,0.00
2017-09-11T03:20:29.241Z,0.00
2017-09-11T03:22:22.252Z,0.00
2017-09-11T03:23:22.293Z,0.00
2017-09-11T03:25:15.283Z,0.00
2017-09-11T03:26:15.354Z,0.00
2017-09-11T03:28:08.354Z,0.00
2017-09-11T03:29:08.395Z,0.00
2017-09-11T03:31:01.384Z,0.00
2017-09-11T03:32:01.447Z,0.00
2017-09-11T03:33:54.455Z,0.00
2017-09-11T03:34:54.495Z,0.00
2017-09-11T03:36:47.492Z,0.00
2017-09-11T03:37:47.551Z,0.00
2017-09-11T03:39:40.561Z,0.00
2017-09-11T03:40:40.603Z,0.00
2017-09-11T03:42:33.617Z,0.00
2017-09-11T03:43:33.656Z,0.00
2017-09-11T03:45:26.644Z,0.00
2017-09-11T03:46:26.707Z,0.00
2017-09-11T03:48:19.715Z,0.00
2017-09-11T03:49:19.761Z,0.00
2017-09-11T03:51:12.748Z,0.00
2017-09-11T03:52:12.807Z,0.00
2017-09-11T03:54:05.816Z,0.00
2017-09-11T03:55:05.858Z,0.00
2017-09-11T03:56:58.848Z,0.00
2017-09-11T03:57:58.909Z,0.00
2017-09-11T03:59:51.922Z,0.00
2017-09-11T04:00:51.965Z,0.00
2017-09-11T04:02:44.973Z,0.00
2017-09-11T04:03:45.015Z,0.00
2017-09-11T04:05:38.004Z,0.00
2017-09-11T04:06:38.065Z,0.00
2017-09-11T04:08:31.073Z,0.00
2017-09-11T04:09:31.115Z,0.00
2017-09-11T04:11:24.110Z,0.00
2017-09-11T04:12:24.176Z,0.00
2017-09-11T04:14:17.182Z,0.00
2017-09-11T04:15:17.224Z,0.00
2017-09-11T04:17:10.219Z,0.00
2017-09-11T04:18:10.282Z,0.00
2017-09-11T04:20:03.298Z,0.00
2017-09-11T04:21:03.341Z,0.00
2017-09-11T04:22:56.355Z,0.00
2017-09-11T04:23:56.400Z,0.00
2017-09-11T04:25:49.390Z,0.00
2017-09-11T04:26:49.456Z,0.00
2017-09-11T04:28:42.469Z,0.00
2017-09-11T04:29:42.510Z,0.00
2017-09-11T04:31:35.505Z,0.00
2017-09-11T04:32:35.572Z,0.00
2017-09-11T04:34:28.586Z,4.00
2017-09-11T04:35:28.629Z,4.00
2017-09-11T04:37:21.623Z,4.00
2017-09-11T04:38:21.687Z,4.00
2017-09-11T04:40:14.708Z,8.00
2017-09-11T04:41:14.756Z,4.00
2017-09-11T04:43:07.757Z,12.00
2017-09-11T04:44:07.800Z,12.00
2017-09-11T04:46:00.791Z,16.00
2017-09-11T04:47:00.860Z,20.00
2017-09-11T04:48:53.864Z,24.00
2017-09-11T04:49:53.908Z,32.00
2017-09-11T04:51:46.921Z,48.00
2017-09-11T04:52:46.953Z,72.00
2017-09-11T04:54:39.968Z,96.00
2017-09-11T04:55:40.008Z,100.00
2017-09-11T04:57:32.999Z,124.00
2017-09-11T04:58:33.063Z,152.00
2017-09-11T05:00:26.071Z,216.00
2017-09-11T05:01:26.112Z,236.00
2017-09-11T05:03:19.125Z,276.00
2017-09-11T05:04:19.168Z,296.00
2017-09-11T05:06:12.160Z,364.00
2017-09-11T05:07:12.220Z,428.00
2017-09-11T05:09:05.229Z,460.00
2017-09-11T05:10:05.282Z,556.00
2017-09-11T05:11:58.266Z,568.00
2017-09-11T05:12:58.326Z,524.00
2017-09-11T05:14:51.344Z,396.00
2017-09-11T05:15:51.392Z,404.00
2017-09-11T05:17:44.382Z,496.00
2017-09-11T05:18:44.441Z,536.00
2017-09-11T05:20:37.453Z,424.00
2017-09-11T05:21:37.493Z,496.00
2017-09-11T05:23:30.506Z,364.00
2017-09-11T05:24:30.548Z,540.00
2017-09-11T05:26:23.536Z,364.00
2017-09-11T05:27:23.595Z,380.00
2017-09-11T05:29:16.611Z,200.00
2017-09-11T05:30:16.645Z,296.00
2017-09-11T05:32:09.640Z,384.00
2017-09-11T05:33:09.703Z,304.00
2017-09-11T05:35:02.715Z,792.00
2017-09-11T05:36:02.757Z,624.00
2017-09-11T05:37:55.752Z,1048.00
2017-09-11T05:38:55.810Z,712.00
2017-09-11T05:40:48.822Z,1368.00
2017-09-11T05:41:48.863Z,1364.00
2017-09-11T05:43:41.870Z,1832.00
2017-09-11T05:44:41.913Z,2276.00
2017-09-11T05:46:34.902Z,2388.00
2017-09-11T05:47:34.970Z,1756.00
2017-09-11T05:49:28.009Z,1072.00
2017-09-11T05:50:28.046Z,1004.00
2017-09-11T05:52:21.041Z,1328.00
2017-09-11T05:53:21.100Z,1312.00
2017-09-11T05:55:14.108Z,1336.00
2017-09-11T05:56:14.159Z,1588.00
2017-09-11T05:58:07.141Z,1808.00
2017-09-11T05:59:07.201Z,1192.00
2017-09-11T06:01:00.716Z,908.00
2017-09-11T06:02:00.758Z,776.00
2017-09-11T06:03:53.777Z,1496.00
2017-09-11T06:04:53.824Z,1984.00
2017-09-11T06:06:46.811Z,1644.00
2017-09-11T06:07:46.870Z,1096.00
2017-09-11T06:09:39.889Z,332.00
2017-09-11T06:10:39.927Z,456.00
2017-09-11T06:12:32.918Z,1280.00
2017-09-11T06:13:32.980Z,1924.00
2017-09-11T06:15:25.994Z,1696.00
2017-09-11T06:16:26.033Z,1756.00
2017-09-11T06:18:19.025Z,2432.00
2017-09-11T06:19:19.087Z,2908.00
2017-09-11T06:21:12.095Z,960.00
2017-09-11T06:22:12.141Z,1340.00
2017-09-11T06:24:05.151Z,2484.00
2017-09-11T06:25:05.190Z,1864.00
2017-09-11T06:26:58.178Z,2504.00
2017-09-11T06:27:58.241Z,2540.00
2017-09-11T06:29:51.253Z,2684.00
2017-09-11T06:30:51.292Z,2732.00
2017-09-11T06:32:44.293Z,2328.00
2017-09-11T06:33:44.350Z,2524.00
2017-09-11T06:35:37.362Z,3272.00
2017-09-11T06:36:37.402Z,3144.00
2017-09-11T06:38:30.394Z,2992.00
2017-09-11T06:39:30.465Z,2824.00
2017-09-11T06:41:23.468Z,2744.00
2017-09-11T06:42:23.508Z,2968.00
2017-09-11T06:44:16.526Z,3264.00
2017-09-11T06:45:16.559Z,5344.00
2017-09-11T06:47:09.545Z,4924.00
2017-09-11T06:48:09.612Z,5320.00
2017-09-11T06:50:02.627Z,4744.00
2017-09-11T06:51:02.667Z,4932.00
2017-09-11T06:52:55.663Z,4428.00
2017-09-11T06:53:55.723Z,4108.00
2017-09-11T06:55:48.744Z,5948.00
2017-09-11T06:56:48.784Z,6984.00
2017-09-11T06:58:41.772Z,8816.00
2017-09-11T06:59:41.833Z,9872.00
2017-09-11T07:01:35.358Z,9308.00
2017-09-11T07:02:35.394Z,9140.00
2017-09-11T07:04:28.407Z,9908.00
2017-09-11T07:05:28.449Z,8932.00
2017-09-11T07:07:21.439Z,9500.00
2017-09-11T07:08:21.503Z,9508.00
2017-09-11T07:10:14.509Z,12568.00
2017-09-11T07:11:14.552Z,8164.00
2017-09-11T07:13:07.545Z,6924.00
2017-09-11T07:14:07.605Z,5996.00
2017-09-11T07:16:00.618Z,6632.00
2017-09-11T07:17:00.661Z,5968.00
2017-09-11T07:18:53.655Z,11384.00
2017-09-11T07:19:53.716Z,20224.00
2017-09-11T07:21:46.726Z,26432.00
2017-09-11T07:22:46.770Z,29728.00
2017-09-11T07:24:39.784Z,31872.00
2017-09-11T07:25:39.837Z,21760.00
2017-09-11T07:27:32.820Z,16640.00
2017-09-11T07:28:32.883Z,21696.00
2017-09-11T07:30:25.898Z,12000.00
2017-09-11T07:31:25.943Z,15312.00
2017-09-11T07:33:18.951Z,15596.00
2017-09-11T07:34:19.004Z,20896.00
2017-09-11T07:36:12.020Z,5844.00
2017-09-11T07:37:12.069Z,4712.00
2017-09-11T07:39:05.060Z,10668.00
2017-09-11T07:40:05.132Z,10720.00
2017-09-11T07:41:58.144Z,4468.00
2017-09-11T07:42:58.186Z,10136.00
2017-09-11T07:44:51.202Z,6024.00
2017-09-11T07:45:51.249Z,9812.00
2017-09-11T07:47:44.244Z,10028.00
2017-09-11T07:48:44.331Z,29216.00
2017-09-11T07:50:37.329Z,4004.00
2017-09-11T07:51:37.374Z,9164.00
2017-09-11T07:53:30.367Z,5848.00
2017-09-11T07:54:30.433Z,8192.00
2017-09-11T07:56:23.466Z,10792.00
2017-09-11T07:57:23.514Z,10732.00
2017-09-11T07:59:16.507Z,4672.00
2017-09-11T08:00:16.572Z,4224.00
2017-09-11T08:02:09.591Z,4548.00
2017-09-11T08:03:09.634Z,3732.00
2017-09-11T08:05:02.652Z,4188.00
2017-09-11T08:06:02.701Z,5824.00
2017-09-11T08:07:55.692Z,10864.00
2017-09-11T08:08:55.755Z,6308.00
2017-09-11T08:10:48.767Z,70304.00
2017-09-11T08:11:48.811Z,58912.00
2017-09-11T08:13:41.803Z,39136.00
2017-09-11T08:14:41.868Z,60608.00
2017-09-11T08:16:34.885Z,48576.00
2017-09-11T08:17:34.932Z,61824.00
2017-09-11T08:19:27.925Z,23520.00
2017-09-11T08:20:27.989Z,78944.00
2017-09-11T08:22:21.012Z,9224.00
2017-09-11T08:23:21.060Z,52192.00
2017-09-11T08:25:14.077Z,8200.00
2017-09-11T08:26:14.126Z,17088.00
2017-09-11T08:28:07.126Z,10828.00
2017-09-11T08:29:07.193Z,10964.00
2017-09-11T08:31:00.210Z,7808.00
2017-09-11T08:32:00.256Z,19328.00
2017-09-11T08:33:53.257Z,71072.00
2017-09-11T08:34:53.323Z,48288.00
2017-09-11T08:36:46.343Z,64512.00
2017-09-11T08:37:46.404Z,54368.00
2017-09-11T08:39:39.389Z,68384.00
2017-09-11T08:40:39.457Z,69696.00
2017-09-11T08:42:32.483Z,72704.00
2017-09-11T08:43:32.530Z,69472.00
2017-09-11T08:45:25.550Z,66400.00
2017-09-11T08:46:25.599Z,24896.00
2017-09-11T08:48:18.600Z,64512.00
2017-09-11T08:49:18.670Z,14880.00
2017-09-11T08:51:11.703Z,11636.00
2017-09-11T08:52:11.751Z,72672.00
2017-09-11T08:54:04.749Z,6608.00
2017-09-11T08:55:04.819Z,6764.00
2017-09-11T08:56:57.841Z,8064.00
2017-09-11T08:57:57.889Z,14500.00
2017-09-11T08:59:50.890Z,75072.00
2017-09-11T09:00:50.962Z,20544.00
2017-09-11T09:02:43.979Z,9352.00
2017-09-11T09:03:44.026Z,14192.00
2017-09-11T09:05:37.081Z,14744.00
2017-09-11T09:06:37.106Z,15304.00
2017-09-11T09:08:30.113Z,15228.00
2017-09-11T09:09:30.178Z,13400.00
2017-09-11T09:11:23.206Z,10700.00
2017-09-11T09:12:23.254Z,15708.00
2017-09-11T09:14:16.252Z,8052.00
2017-09-11T09:15:16.318Z,8260.00
2017-09-11T09:17:09.338Z,8844.00
2017-09-11T09:18:09.384Z,8596.00
2017-09-11T09:20:02.379Z,8424.00
2017-09-11T09:21:02.451Z,10452.00
2017-09-11T09:22:55.463Z,9744.00
2017-09-11T09:23:55.508Z,11668.00
2017-09-11T09:25:48.527Z,12128.00
2017-09-11T09:26:48.570Z,10996.00
2017-09-11T09:28:41.571Z,14600.00
2017-09-11T09:29:41.644Z,15528.00
2017-09-11T09:31:34.656Z,10848.00
2017-09-11T09:32:34.698Z,7388.00
2017-09-11T09:34:27.693Z,10408.00
2017-09-11T09:35:27.763Z,7964.00
2017-09-11T09:37:20.780Z,5040.00
2017-09-11T09:38:20.824Z,8208.00
2017-09-11T09:40:13.851Z,5040.00
2017-09-11T09:41:13.890Z,6580.00
2017-09-11T09:43:06.918Z,12560.00
2017-09-11T09:44:06.963Z,9184.00
2017-09-11T09:45:59.979Z,11124.00
2017-09-11T09:47:00.025Z,8196.00
2017-09-11T09:48:53.026Z,8912.00
2017-09-11T09:49:53.091Z,8996.00
2017-09-11T09:51:46.119Z,5640.00
2017-09-11T09:52:46.164Z,4684.00
2017-09-11T09:54:39.159Z,6704.00
2017-09-11T09:55:39.227Z,4820.00
2017-09-11T09:57:32.242Z,4180.00
2017-09-11T09:58:32.284Z,3760.00
2017-09-11T10:00:25.336Z,4776.00
2017-09-11T10:01:25.345Z,4440.00
2017-09-11T10:03:18.340Z,12808.00
2017-09-11T10:04:18.404Z,12588.00
2017-09-11T10:06:11.422Z,11332.00
2017-09-11T10:07:11.469Z,9260.00
2017-09-11T10:09:05.321Z,14920.00
2017-09-11T10:10:05.376Z,11616.00
2017-09-11T10:11:58.406Z,4676.00
2017-09-11T10:12:58.453Z,3052.00
2017-09-11T10:14:51.454Z,3140.00
2017-09-11T10:15:51.516Z,3820.00
2017-09-11T10:17:44.534Z,5232.00
2017-09-11T10:18:44.578Z,6708.00
2017-09-11T10:20:37.600Z,12028.00
2017-09-11T10:21:37.646Z,8332.00
2017-09-11T10:23:30.650Z,7248.00
2017-09-11T10:24:30.706Z,7096.00
2017-09-11T10:26:23.725Z,5560.00
2017-09-11T10:27:23.771Z,7592.00
2017-09-11T10:29:16.763Z,7652.00
2017-09-11T10:30:16.830Z,7988.00
2017-09-11T10:32:09.843Z,11512.00
2017-09-11T10:33:09.888Z,10560.00
2017-09-11T10:35:02.881Z,17248.00
2017-09-11T10:36:02.946Z,15064.00
2017-09-11T10:37:55.960Z,10080.00
2017-09-11T10:38:56.005Z,11680.00
2017-09-11T10:40:49.032Z,7968.00
2017-09-11T10:41:49.065Z,7680.00
2017-09-11T10:43:42.059Z,8856.00
2017-09-11T10:44:42.133Z,9292.00
2017-09-11T10:46:35.141Z,16576.00
2017-09-11T10:47:35.187Z,17408.00
2017-09-11T10:49:28.182Z,13896.00
2017-09-11T10:50:28.246Z,12052.00
2017-09-11T10:52:21.265Z,10208.00
2017-09-11T10:53:21.311Z,10216.00
2017-09-11T10:55:14.308Z,6852.00
2017-09-11T10:56:14.370Z,6556.00
2017-09-11T10:58:07.387Z,6652.00
2017-09-11T10:59:07.434Z,6952.00
2017-09-11T11:01:00.449Z,5472.00
2017-09-11T11:02:00.496Z,6900.00
2017-09-11T11:03:53.489Z,11500.00
2017-09-11T11:04:53.552Z,10224.00
2017-09-11T11:06:46.568Z,15464.00
2017-09-11T11:07:46.613Z,13536.00
2017-09-11T11:09:39.608Z,10164.00
2017-09-11T11:10:39.680Z,11232.00
2017-09-11T11:12:32.690Z,11252.00
2017-09-11T11:13:32.737Z,12728.00
2017-09-11T11:15:25.732Z,11456.00
2017-09-11T11:16:25.807Z,11820.00
2017-09-11T11:18:18.816Z,15384.00
2017-09-11T11:19:18.859Z,13840.00
2017-09-11T11:21:11.875Z,15352.00
2017-09-11T11:22:11.934Z,14356.00
2017-09-11T11:24:04.916Z,10300.00
2017-09-11T11:25:04.983Z,11064.00
2017-09-11T11:26:58.005Z,10528.00
2017-09-11T11:27:58.049Z,8236.00
2017-09-11T11:29:51.056Z,4840.00
2017-09-11T11:30:51.117Z,6660.00
2017-09-11T11:32:44.140Z,12308.00
2017-09-11T11:33:44.181Z,11692.00
2017-09-11T11:35:37.176Z,6788.00
2017-09-11T11:36:37.242Z,5420.00
2017-09-11T11:38:30.261Z,7060.00
2017-09-11T11:39:30.305Z,5496.00
2017-09-11T11:41:23.320Z,2948.00
2017-09-11T11:42:23.365Z,3164.00
2017-09-11T11:44:16.366Z,6544.00
2017-09-11T11:45:16.427Z,10696.00
2017-09-11T11:47:09.453Z,13492.00
2017-09-11T11:48:09.489Z,7832.00
2017-09-11T11:50:02.482Z,4204.00
2017-09-11T11:51:02.546Z,4068.00
2017-09-11T11:52:55.560Z,4544.00
2017-09-11T11:53:55.607Z,4028.00
2017-09-11T11:55:48.599Z,3612.00
2017-09-11T11:56:48.663Z,4672.00
2017-09-11T11:58:41.686Z,7768.00
2017-09-11T11:59:41.729Z,6900.00
2017-09-11T12:01:35.248Z,11868.00
2017-09-11T12:02:35.294Z,9824.00
2017-09-11T12:04:28.287Z,12316.00
2017-09-11T12:05:28.358Z,10716.00
2017-09-11T12:07:21.367Z,10296.00
2017-09-11T12:08:21.411Z,10164.00
2017-09-11T12:10:14.407Z,5880.00
2017-09-11T12:11:14.478Z,6324.00
2017-09-11T12:13:07.493Z,9824.00
2017-09-11T12:14:07.537Z,6552.00
2017-09-11T12:16:00.529Z,6668.00
2017-09-11T12:17:00.596Z,6440.00
2017-09-11T12:18:53.612Z,6492.00
2017-09-11T12:19:53.656Z,6860.00
2017-09-11T12:21:46.670Z,5336.00
2017-09-11T12:22:46.715Z,6432.00
2017-09-11T12:24:39.710Z,5792.00
2017-09-11T12:25:39.773Z,5288.00
2017-09-11T12:27:32.792Z,8216.00
2017-09-11T12:28:32.837Z,6340.00
2017-09-11T12:30:25.832Z,5652.00
2017-09-11T12:31:25.897Z,6192.00
2017-09-11T12:33:18.915Z,4912.00
2017-09-11T12:34:18.961Z,3832.00
2017-09-11T12:36:11.963Z,3612.00
2017-09-11T12:37:12.028Z,4608.00
2017-09-11T12:39:05.044Z,4684.00
2017-09-11T12:40:05.086Z,5804.00
2017-09-11T12:41:58.105Z,6156.00
2017-09-11T12:42:58.145Z,11104.00
2017-09-11T12:44:51.145Z,8908.00
2017-09-11T12:45:51.211Z,9552.00
2017-09-11T12:47:44.234Z,8440.00
2017-09-11T12:48:44.277Z,7764.00
2017-09-11T12:50:37.276Z,9600.00
2017-09-11T12:51:37.343Z,7788.00
2017-09-11T12:53:30.373Z,8224.00
2017-09-11T12:54:30.417Z,8144.00
2017-09-11T12:56:23.412Z,3304.00
2017-09-11T12:57:23.476Z,4748.00
2017-09-11T12:59:16.499Z,3828.00
2017-09-11T13:00:16.541Z,5360.00
2017-09-11T13:02:10.100Z,6544.00
2017-09-11T13:03:10.119Z,9168.00
2017-09-11T13:05:03.104Z,7076.00
2017-09-11T13:06:03.167Z,7976.00
2017-09-11T13:07:56.182Z,6720.00
2017-09-11T13:08:56.226Z,3460.00
2017-09-11T13:10:49.225Z,5920.00
2017-09-11T13:11:49.285Z,5892.00
2017-09-11T13:13:42.298Z,4368.00
2017-09-11T13:14:42.345Z,9020.00
2017-09-11T13:16:35.336Z,11356.00
2017-09-11T13:17:35.401Z,6836.00
2017-09-11T13:19:28.415Z,5532.00
2017-09-11T13:20:28.460Z,6092.00
2017-09-11T13:22:21.476Z,3948.00
2017-09-11T13:23:21.518Z,3008.00
2017-09-11T13:25:14.513Z,4000.00
2017-09-11T13:26:14.579Z,5460.00
2017-09-11T13:28:08.107Z,7964.00
2017-09-11T13:29:08.146Z,9252.00
2017-09-11T13:31:01.138Z,9252.00
2017-09-11T13:32:01.203Z,10380.00
2017-09-11T13:33:54.221Z,9444.00
2017-09-11T13:34:54.259Z,7136.00
2017-09-11T13:36:47.259Z,5012.00
2017-09-11T13:37:47.322Z,4472.00
2017-09-11T13:39:40.333Z,4072.00
2017-09-11T13:40:40.379Z,4224.00
2017-09-11T13:42:33.405Z,4404.00
2017-09-11T13:43:33.446Z,4468.00
2017-09-11T13:45:26.433Z,5124.00
2017-09-11T13:46:26.497Z,5232.00
2017-09-11T13:48:19.514Z,9128.00
2017-09-11T13:49:19.556Z,10836.00
2017-09-11T13:51:12.548Z,2980.00
2017-09-11T13:52:12.615Z,3116.00
2017-09-11T13:54:05.628Z,1684.00
2017-09-11T13:55:05.670Z,1364.00
2017-09-11T13:56:58.664Z,2892.00
2017-09-11T13:57:58.731Z,4992.00
2017-09-11T13:59:51.756Z,12472.00
2017-09-11T14:00:51.801Z,11140.00
2017-09-11T14:02:44.813Z,9304.00
2017-09-11T14:03:44.857Z,8380.00
2017-09-11T14:05:37.849Z,6060.00
2017-09-11T14:06:37.915Z,5788.00
2017-09-11T14:08:31.440Z,4876.00
2017-09-11T14:09:31.480Z,4888.00
2017-09-11T14:11:24.475Z,5036.00
2017-09-11T14:12:24.540Z,4896.00
2017-09-11T14:14:17.555Z,3880.00
2017-09-11T14:15:17.597Z,3652.00
2017-09-11T14:17:10.597Z,3400.00
2017-09-11T14:18:10.660Z,3308.00
2017-09-11T14:20:03.678Z,3140.00
2017-09-11T14:21:03.722Z,3096.00
2017-09-11T14:22:56.735Z,3096.00
2017-09-11T14:23:56.779Z,3032.00
2017-09-11T14:25:49.781Z,2972.00
2017-09-11T14:26:49.841Z,2960.00
2017-09-11T14:28:42.854Z,2952.00
2017-09-11T14:29:42.899Z,2976.00
2017-09-11T14:31:35.896Z,2908.00
2017-09-11T14:32:35.958Z,2904.00
2017-09-11T14:34:28.974Z,2616.00
2017-09-11T14:35:29.016Z,2908.00
2017-09-11T14:37:22.017Z,4004.00
2017-09-11T14:38:22.083Z,3348.00
2017-09-11T14:40:15.102Z,3088.00
2017-09-11T14:41:15.148Z,3024.00
2017-09-11T14:43:08.168Z,2828.00
2017-09-11T14:44:08.211Z,2772.00
2017-09-11T14:46:01.208Z,2392.00
2017-09-11T14:47:01.271Z,2308.00
2017-09-11T14:48:54.286Z,2184.00
2017-09-11T14:49:54.330Z,2364.00
2017-09-11T14:51:47.323Z,3828.00
2017-09-11T14:52:47.388Z,4828.00
2017-09-11T14:54:40.400Z,6252.00
2017-09-11T14:55:40.445Z,6112.00
2017-09-11T14:57:33.439Z,3888.00
2017-09-11T14:58:33.513Z,3752.00
2017-09-11T15:00:26.556Z,4632.00
2017-09-11T15:01:26.601Z,4976.00
2017-09-11T15:03:19.614Z,4860.00
2017-09-11T15:04:19.657Z,3860.00
2017-09-11T15:06:12.652Z,2808.00
2017-09-11T15:07:12.722Z,2556.00
2017-09-11T15:09:05.736Z,2624.00
2017-09-11T15:10:05.775Z,2556.00
2017-09-11T15:11:58.772Z,3508.00
2017-09-11T15:12:58.840Z,3904.00
2017-09-11T15:14:51.852Z,5624.00
2017-09-11T15:15:51.896Z,5720.00
2017-09-11T15:17:44.911Z,5432.00
2017-09-11T15:18:44.954Z,5484.00
2017-09-11T15:20:37.978Z,5216.00
2017-09-11T15:21:38.024Z,5596.00
2017-09-11T15:23:31.053Z,4204.00
2017-09-11T15:24:31.085Z,3684.00
2017-09-11T15:26:24.080Z,4420.00
2017-09-11T15:27:24.143Z,5152.00
2017-09-11T15:29:17.158Z,4208.00
2017-09-11T15:30:17.206Z,3716.00
2017-09-11T15:32:10.198Z,3016.00
2017-09-11T15:33:10.261Z,3064.00
2017-09-11T15:35:03.278Z,4444.00
2017-09-11T15:36:03.318Z,4416.00
2017-09-11T15:37:57.368Z,2912.00
2017-09-11T15:38:57.441Z,3008.00
2017-09-11T15:40:50.445Z,4300.00
2017-09-11T15:41:50.466Z,5192.00
2017-09-11T15:43:43.486Z,5984.00
2017-09-11T15:44:43.534Z,4704.00
2017-09-11T15:46:36.530Z,3964.00
2017-09-11T15:47:36.610Z,4028.00
2017-09-11T15:49:29.630Z,4364.00
2017-09-11T15:50:29.675Z,3288.00
2017-09-11T15:52:22.668Z,2064.00
2017-09-11T15:53:22.736Z,1904.00
2017-09-11T15:55:15.787Z,2196.00
2017-09-11T15:56:15.800Z,3272.00
2017-09-11T15:58:08.845Z,2992.00
2017-09-11T15:59:08.865Z,3440.00
2017-09-11T16:01:01.889Z,3700.00
2017-09-11T16:02:01.930Z,3756.00
2017-09-11T16:03:54.945Z,2700.00
2017-09-11T16:04:54.988Z,3020.00
2017-09-11T16:06:47.991Z,4200.00
2017-09-11T16:07:48.055Z,4344.00
2017-09-11T16:09:41.078Z,2708.00
2017-09-11T16:10:41.118Z,3144.00
2017-09-11T16:12:34.117Z,2268.00
2017-09-11T16:13:34.178Z,2540.00
2017-09-11T16:15:27.196Z,2444.00
2017-09-11T16:16:27.240Z,2744.00
2017-09-11T16:18:20.268Z,2976.00
2017-09-11T16:19:20.302Z,3536.00
2017-09-11T16:21:13.295Z,3304.00
2017-09-11T16:22:13.360Z,3484.00
2017-09-11T16:24:06.371Z,3060.00
2017-09-11T16:25:06.419Z,3084.00
2017-09-11T16:26:59.416Z,2416.00
2017-09-11T16:27:59.471Z,3068.00
2017-09-11T16:29:52.485Z,2680.00
2017-09-11T16:30:52.530Z,3036.00
2017-09-11T16:32:45.521Z,2072.00
2017-09-11T16:33:45.585Z,2712.00
2017-09-11T16:35:38.598Z,1960.00
2017-09-11T16:36:38.641Z,2456.00
2017-09-11T16:38:31.653Z,2328.00
2017-09-11T16:39:31.700Z,2104.00
2017-09-11T16:41:24.689Z,1700.00
2017-09-11T16:42:24.753Z,1968.00
2017-09-11T16:44:17.767Z,2308.00
2017-09-11T16:45:17.810Z,3144.00
2017-09-11T16:47:10.805Z,2096.00
2017-09-11T16:48:10.874Z,2336.00
2017-09-11T16:50:03.885Z,2368.00
2017-09-11T16:51:03.926Z,2220.00
2017-09-11T16:52:56.927Z,1728.00
2017-09-11T16:53:56.986Z,1832.00
2017-09-11T16:55:50.006Z,1500.00
2017-09-11T16:56:50.057Z,1304.00
2017-09-11T16:58:43.064Z,1424.00
2017-09-11T16:59:43.114Z,1284.00
2017-09-11T17:01:36.105Z,1352.00
2017-09-11T17:02:36.169Z,1364.00
2017-09-11T17:04:29.184Z,1220.00
2017-09-11T17:05:29.227Z,1096.00
2017-09-11T17:07:22.226Z,988.00
2017-09-11T17:08:22.291Z,1116.00
2017-09-11T17:10:15.305Z,1140.00
2017-09-11T17:11:15.346Z,1292.00
2017-09-11T17:13:08.346Z,1792.00
2017-09-11T17:14:08.409Z,1448.00
2017-09-11T17:16:01.426Z,1116.00
2017-09-11T17:17:01.467Z,1024.00
2017-09-11T17:18:54.498Z,920.00
2017-09-11T17:19:54.533Z,896.00
2017-09-11T17:21:47.528Z,732.00
2017-09-11T17:22:47.592Z,620.00
2017-09-11T17:24:40.605Z,524.00
2017-09-11T17:25:40.652Z,524.00
2017-09-11T17:27:33.644Z,532.00
2017-09-11T17:28:33.725Z,564.00
2017-09-11T17:30:27.229Z,564.00
2017-09-11T17:31:27.267Z,496.00
2017-09-11T17:33:20.267Z,440.00
2017-09-11T17:34:20.344Z,404.00
2017-09-11T17:36:13.348Z,352.00
2017-09-11T17:37:13.392Z,304.00
2017-09-11T17:39:06.434Z,312.00
2017-09-11T17:40:06.488Z,304.00
2017-09-11T17:41:59.467Z,292.00
2017-09-11T17:42:59.530Z,276.00
2017-09-11T17:44:52.539Z,256.00
2017-09-11T17:45:52.581Z,240.00
2017-09-11T17:47:45.578Z,224.00
2017-09-11T17:48:45.641Z,204.00
2017-09-11T17:50:38.655Z,180.00